Time;durP1;ratioP1;P1;durP2;ratioP2;P2;SDS_P1;SDS_P2;PMS_P1;PMS_P2;Temp;Humidity;BMP_temperature;BMP_pressure;BME280_temperature;BME280_humidity;BME280_pressure;Samples;Min_cycle;Max_cycle;Signal;HPM_P1;HPM_P2
2023/09/08 00:03:21;;;;;;;5.53;4.30;;;;;;;23.19;55.14;100371.69;10352557;28;20052;-66
2023/09/08 00:08:24;;;;;;;4.38;3.28;;;;;;;23.21;55.31;100385.91;10343151;28;20247;-67
2023/09/08 00:13:25;;;;;;;4.32;3.72;;;;;;;23.18;55.65;100380.03;10339809;28;20360;-66
2023/09/08 00:18:26;;;;;;;5.78;3.28;;;;;;;23.13;55.11;100372.50;10346487;28;20062;-66
2023/09/08 00:23:28;;;;;;;4.60;3.83;;;;;;;23.12;55.32;100371.69;10348639;28;20054;-66
2023/09/08 00:28:29;;;;;;;4.95;3.03;;;;;;;23.10;55.03;100372.91;10348722;28;20045;-66
2023/09/08 00:33:30;;;;;;;3.90;3.55;;;;;;;23.01;54.94;100368.69;10347196;28;20156;-66
2023/09/08 00:38:32;;;;;;;4.97;3.65;;;;;;;22.95;55.08;100356.75;10348160;28;20212;-66
2023/09/08 00:43:34;;;;;;;5.30;3.22;;;;;;;23.00;55.15;100369.72;10344933;28;20097;-66
2023/09/08 00:48:37;;;;;;;3.63;3.33;;;;;;;22.98;55.34;100369.91;10330511;28;20409;-66
2023/09/08 00:53:38;;;;;;;;;;;;;;;22.91;55.63;100352.78;10347446;28;20050;-65
2023/09/08 00:58:40;;;;;;;4.40;3.70;;;;;;;22.86;55.42;100355.25;10353088;28;19921;-68
2023/09/08 01:03:43;;;;;;;4.00;3.60;;;;;;;22.75;55.75;100346.66;10338645;28;20046;-65
2023/09/08 01:08:45;;;;;;;5.57;2.95;;;;;;;22.74;55.67;100357.69;10345009;28;20111;-65
2023/09/08 01:13:46;;;;;;;5.25;3.42;;;;;;;22.67;56.24;100357.69;10341411;28;20585;-65
2023/09/08 01:18:49;;;;;;;5.40;4.00;;;;;;;22.62;56.43;100372.88;10353750;28;20099;-67
2023/09/08 01:24:21;;;;;;;3.85;3.50;;;;;;;22.63;56.63;100374.56;10349664;28;20042;-67
2023/09/08 01:29:25;;;;;;;6.18;4.10;;;;;;;22.57;57.06;100385.16;10352832;28;20142;-66
2023/09/08 01:34:27;;;;;;;4.75;3.97;;;;;;;22.53;57.49;100378.47;10335415;28;20833;-67
2023/09/08 01:39:28;;;;;;;5.53;3.80;;;;;;;22.28;57.90;100342.81;10345119;28;20053;-66
2023/09/08 01:44:30;;;;;;;5.38;3.22;;;;;;;22.44;58.11;100365.25;10340576;28;20366;-66
2023/09/08 01:49:31;;;;;;;4.70;3.40;;;;;;;22.35;57.88;100359.13;10343069;28;20405;-66
2023/09/08 01:54:32;;;;;;;4.22;3.50;;;;;;;22.30;58.04;100356.16;10356716;28;20055;-65
2023/09/08 01:59:34;;;;;;;3.95;3.40;;;;;;;22.21;58.42;100345.47;10379148;28;20045;-66
2023/09/08 02:04:36;;;;;;;3.85;3.38;;;;;;;22.22;58.43;100358.00;10380575;28;20057;-66
2023/09/08 02:09:37;;;;;;;3.25;2.95;;;;;;;22.21;58.81;100350.06;10353583;28;20057;-63
2023/09/08 02:14:39;;;;;;;4.28;3.85;;;;;;;22.15;58.45;100351.69;10346276;28;20121;-67
2023/09/08 02:19:40;;;;;;;3.80;3.47;;;;;;;22.10;59.14;100356.88;10352327;28;20053;-67
2023/09/08 02:24:42;;;;;;;4.68;3.67;;;;;;;22.07;58.54;100354.53;10351969;28;20053;-67
2023/09/08 02:29:43;;;;;;;4.50;3.55;;;;;;;22.01;58.80;100353.44;10338095;28;20049;-65
2023/09/08 02:34:48;;;;;;;5.32;4.35;;;;;;;21.98;59.00;100363.84;10336319;28;20061;-68
2023/09/08 02:39:50;;;;;;;4.23;3.23;;;;;;;21.94;59.08;100360.69;10353360;28;20065;-67
2023/09/08 02:44:51;;;;;;;4.03;3.63;;;;;;;21.87;58.03;100352.50;10349794;28;20446;-67
2023/09/08 02:49:53;;;;;;;4.15;3.50;;;;;;;21.85;59.10;100359.97;10349293;28;20426;-63
2023/09/08 02:54:54;;;;;;;4.53;3.65;;;;;;;21.83;59.00;100366.66;10346356;28;20053;-67
2023/09/08 02:59:56;;;;;;;5.10;3.25;;;;;;;21.80;58.89;100365.16;10353199;28;20904;-66
2023/09/08 03:04:57;;;;;;;4.97;4.47;;;;;;;21.75;59.17;100355.94;10340850;28;20155;-66
2023/09/08 03:09:59;;;;;;;4.68;3.92;;;;;;;21.70;58.92;100359.22;10351591;28;20713;-66
2023/09/08 03:15:04;;;;;;;4.32;3.55;;;;;;;21.68;58.85;100355.88;10351080;28;20057;-64
2023/09/08 03:20:07;;;;;;;4.32;3.20;;;;;;;21.66;58.84;100363.34;10349196;28;20239;-65
2023/09/08 03:25:09;;;;;;;4.20;2.97;;;;;;;21.55;59.09;100348.44;10346137;28;20052;-64
2023/09/08 03:30:10;;;;;;;4.07;3.60;;;;;;;21.60;59.39;100356.00;10348983;28;20240;-65
2023/09/08 03:35:12;;;;;;;5.15;3.90;;;;;;;21.54;59.20;100350.34;10352057;28;20592;-67
2023/09/08 03:40:13;;;;;;;3.90;3.60;;;;;;;21.60;58.95;100350.56;10352043;28;20196;-65
2023/09/08 03:45:15;;;;;;;6.35;3.95;;;;;;;21.39;59.14;100332.44;10336286;28;20346;-66
2023/09/08 03:50:16;;;;;;;3.78;3.38;;;;;;;21.45;58.92;100348.75;10348269;28;20057;-67
2023/09/08 03:55:18;;;;;;;4.13;3.72;;;;;;;21.49;59.82;100355.44;10343528;28;20057;-68
2023/09/08 04:00:21;;;;;;;5.07;3.38;;;;;;;21.37;60.44;100352.41;10356683;28;20412;-68
2023/09/08 04:05:23;;;;;;;8.70;5.00;;;;;;;21.38;60.26;100364.09;10345178;28;20045;-66
2023/09/08 04:10:25;;;;;;;5.95;4.32;;;;;;;21.36;59.91;100355.31;10350695;28;20199;-67
2023/09/08 04:15:26;;;;;;;4.28;3.83;;;;;;;21.37;60.78;100373.22;10330654;28;20080;-68
2023/09/08 04:20:28;;;;;;;4.82;3.75;;;;;;;21.26;61.13;100357.47;10326887;28;20463;-67
2023/09/08 04:25:29;;;;;;;4.82;4.30;;;;;;;21.24;61.40;100363.09;10351273;28;20091;-67
2023/09/08 04:30:30;;;;;;;5.43;4.10;;;;;;;21.26;61.24;100371.00;10351607;28;20069;-66
2023/09/08 04:35:32;;;;;;;4.60;4.20;;;;;;;21.17;61.41;100371.13;10345501;28;20042;-68
2023/09/08 04:40:33;;;;;;;4.95;4.50;;;;;;;21.22;62.24;100383.28;10352581;28;20562;-68
2023/09/08 04:45:35;;;;;;;4.55;3.72;;;;;;;21.19;61.49;100385.31;10357119;28;20523;-67
2023/09/08 04:50:36;;;;;;;5.38;4.15;;;;;;;21.04;60.78;100378.25;10404901;28;20072;-66
2023/09/08 04:55:37;;;;;;;4.38;3.97;;;;;;;21.13;61.26;100399.59;10352884;28;20128;-68
2023/09/08 05:00:42;;;;;;;4.13;3.72;;;;;;;21.11;62.13;100401.66;10353415;28;20111;-68
2023/09/08 05:05:44;;;;;;;5.63;4.40;;;;;;;21.02;61.80;100389.28;10338971;28;20408;-68
2023/09/08 05:10:46;;;;;;;8.10;4.67;;;;;;;20.96;61.80;100390.03;10351636;28;20092;-72
2023/09/08 05:15:48;;;;;;;4.65;4.03;;;;;;;20.97;61.85;100397.97;10349302;28;20050;-70
2023/09/08 05:20:50;;;;;;;4.53;4.13;;;;;;;20.96;61.77;100398.97;10352085;28;20046;-72
2023/09/08 05:25:51;;;;;;;5.07;3.85;;;;;;;21.05;61.74;100407.84;10340772;28;20054;-68
2023/09/08 05:30:53;;;;;;;5.05;3.78;;;;;;;21.03;61.67;100407.16;10336404;28;20069;-68
2023/09/08 05:35:55;;;;;;;4.05;3.28;;;;;;;20.98;61.34;100404.22;10334824;28;20128;-67
2023/09/08 05:40:57;;;;;;;6.20;3.40;;;;;;;21.02;61.60;100409.03;10353263;28;24922;-68
2023/09/08 05:45:58;;;;;;;4.78;3.40;;;;;;;20.98;61.60;100402.31;10352243;28;20064;-71
2023/09/08 05:51:02;;;;;;;5.10;3.80;;;;;;;20.96;61.17;100400.84;10352802;28;20151;-65
2023/09/08 05:56:03;;;;;;;3.80;3.42;;;;;;;21.06;61.69;100414.91;10351821;28;20471;-66
2023/09/08 06:01:05;;;;;;;6.03;4.22;;;;;;;20.95;61.94;100404.59;10349255;28;20140;-67
2023/09/08 06:06:06;;;;;;;4.85;4.35;;;;;;;21.18;62.07;100421.53;10347513;28;20196;-67
2023/09/08 06:11:08;;;;;;;5.32;4.82;;;;;;;21.29;62.50;100420.22;10347699;28;20133;-67
2023/09/08 06:16:09;;;;;;;4.93;4.22;;;;;;;21.28;62.39;100385.22;10335855;28;20072;-68
2023/09/08 06:21:10;;;;;;;17.55;6.13;;;;;;;21.46;61.27;100393.75;10339284;28;20045;-68
2023/09/08 06:26:12;;;;;;;7.75;4.90;;;;;;;21.70;61.36;100416.94;10331192;28;20714;-67
2023/09/08 06:31:14;;;;;;;4.55;4.15;;;;;;;21.80;61.31;100410.34;10329338;28;20058;-67
2023/09/08 06:36:16;;;;;;;6.43;4.50;;;;;;;22.00;60.60;100415.97;10331775;28;20056;-67
2023/09/08 06:41:17;;;;;;;4.85;4.35;;;;;;;22.14;60.33;100428.59;10338928;28;20532;-68
2023/09/08 06:46:19;;;;;;;5.97;4.63;;;;;;;22.22;59.72;100419.53;10342420;28;22292;-66
2023/09/08 06:51:20;;;;;;;6.07;4.47;;;;;;;22.37;60.32;100420.28;10326940;28;20076;-69
2023/09/08 06:56:22;;;;;;;4.95;4.25;;;;;;;22.48;58.37;100421.59;10342793;28;20921;-67
2023/09/08 07:01:24;;;;;;;6.10;4.38;;;;;;;22.49;59.27;100426.00;10342868;28;20136;-67
2023/09/08 07:06:26;;;;;;;5.27;4.60;;;;;;;22.53;58.25;100421.88;10339023;28;20772;-67
2023/09/08 07:11:27;;;;;;;4.35;4.05;;;;;;;22.48;57.54;100408.03;10333805;28;20616;-67
2023/09/08 07:16:38;;;;;;;4.68;4.05;;;;;;;22.73;57.52;100421.16;10370796;27;20429;-57
2023/09/08 07:21:40;;;;;;;4.25;3.88;;;;;;;22.87;57.79;100422.06;10373999;28;20044;-57
2023/09/08 07:26:41;;;;;;;4.90;3.97;;;;;;;22.99;57.02;100409.59;10370620;28;20060;-57
2023/09/08 07:31:44;;;;;;;4.97;4.45;;;;;;;23.11;56.45;100416.16;10340568;28;20099;-56
2023/09/08 07:36:45;;;;;;;5.30;3.65;;;;;;;23.31;57.80;100415.41;10326373;28;20057;-58
2023/09/08 07:41:47;;;;;;;3.72;3.35;;;;;;;23.42;56.38;100405.81;10347673;28;20061;-58
2023/09/08 07:46:51;;;;;;;7.30;4.05;;;;;;;23.63;54.98;100407.56;10333626;28;20049;-58
2023/09/08 07:51:52;;;;;;;5.07;3.75;;;;;;;23.78;54.76;100408.22;10345343;28;20065;-58
2023/09/08 07:56:54;;;;;;;4.07;3.72;;;;;;;24.00;55.06;100410.75;10344346;28;20153;-57
2023/09/08 08:01:56;;;;;;;7.20;3.83;;;;;;;24.23;54.36;100420.38;10326043;28;20061;-57
2023/09/08 08:06:57;;;;;;;5.00;4.10;;;;;;;24.29;53.17;100398.66;10356610;28;20061;-57
2023/09/08 08:11:59;;;;;;;5.05;4.03;;;;;;;24.57;52.82;100419.31;10344589;28;20544;-58
2023/09/08 08:17:01;;;;;;;4.55;4.15;;;;;;;24.65;52.33;100424.56;10340158;28;20057;-58
2023/09/08 08:22:03;;;;;;;5.55;3.60;;;;;;;24.81;51.54;100419.72;10338292;28;20053;-58
2023/09/08 08:27:04;;;;;;;4.85;3.85;;;;;;;24.98;50.85;100423.66;10316253;28;20398;-56
2023/09/08 08:32:07;;;;;;;6.45;3.58;;;;;;;25.01;51.06;100423.22;10317993;28;20060;-56
2023/09/08 08:37:09;;;;;;;8.20;3.90;;;;;;;25.16;50.40;100420.25;10311767;28;20117;-57
2023/09/08 08:42:14;;;;;;;5.90;4.68;;;;;;;25.31;50.08;100410.97;10310614;28;20924;-58
2023/09/08 08:47:18;;;;;;;4.35;3.95;;;;;;;25.51;49.69;100416.34;10311975;28;21408;-57
2023/09/08 08:52:21;;;;;;;5.43;4.13;;;;;;;25.67;49.38;100409.50;10305097;28;20974;-56
2023/09/08 08:57:23;;;;;;;5.13;4.60;;;;;;;25.84;49.23;100415.28;10314972;28;20057;-58
2023/09/08 09:02:25;;;;;;;4.53;3.87;;;;;;;25.88;48.46;100391.97;10295280;28;20205;-57
2023/09/08 09:07:27;;;;;;;7.13;4.53;;;;;;;26.18;48.24;100402.25;10302599;28;20116;-56
2023/09/08 09:12:29;;;;;;;7.63;4.13;;;;;;;26.41;47.68;100398.91;10303277;28;20053;-57
2023/09/08 09:17:34;;;;;;;5.47;3.73;;;;;;;26.72;46.67;100411.63;10302307;28;20062;-57
2023/09/08 09:22:36;;;;;;;6.55;4.07;;;;;;;26.85;46.78;100404.34;10304946;28;20056;-55
2023/09/08 09:27:40;;;;;;;5.40;3.75;;;;;;;27.02;46.14;100394.47;10307775;28;20137;-56
2023/09/08 09:32:43;;;;;;;5.38;3.60;;;;;;;27.22;45.80;100399.69;10314345;28;20100;-57
2023/09/08 09:37:46;;;;;;;4.60;4.00;;;;;;;27.33;44.49;100387.16;10317689;28;20061;-57
2023/09/08 09:42:50;;;;;;;4.75;3.90;;;;;;;27.56;43.29;100388.31;10305175;28;20057;-56
2023/09/08 09:47:52;;;;;;;4.13;3.63;;;;;;;27.63;43.75;100391.78;10288542;28;20420;-58
2023/09/08 09:52:58;;;;;;;3.60;3.30;;;;;;;27.80;43.30;100390.06;10311194;28;20462;-57
2023/09/08 09:58:03;;;;;;;5.35;3.40;;;;;;;27.97;42.36;100378.44;10302829;28;20066;-58
2023/09/08 10:03:06;;;;;;;4.45;3.53;;;;;;;28.18;41.51;100380.63;10301024;28;20054;-58
2023/09/08 10:08:08;;;;;;;4.50;3.85;;;;;;;28.42;41.28;100386.09;10302260;28;20056;-58
2023/09/08 10:13:12;;;;;;;4.57;3.90;;;;;;;28.54;41.29;100384.19;10304005;28;20065;-57
2023/09/08 10:18:19;;;;;;;5.57;3.28;;;;;;;28.88;40.91;100389.03;10299881;28;20162;-58
2023/09/08 10:23:36;;;;;;;4.30;3.90;;;;;;;29.08;41.27;100375.78;10293223;28;20104;-57
2023/09/08 10:28:39;;;;;;;4.18;3.78;;;;;;;29.19;40.83;100371.31;10332233;28;20140;-57
2023/09/08 10:33:42;;;;;;;4.07;3.50;;;;;;;29.35;41.22;100367.00;10300892;28;20057;-59
2023/09/08 10:38:47;;;;;;;4.57;3.95;;;;;;;29.49;40.56;100359.28;10292286;28;20053;-58
2023/09/08 10:43:56;;;;;;;4.88;4.40;;;;;;;29.71;40.56;100356.66;10297712;28;20501;-58
2023/09/08 10:49:07;;;;;;;4.40;3.67;;;;;;;30.01;39.84;100360.19;10302499;28;20197;-59
2023/09/08 10:54:09;;;;;;;3.75;3.45;;;;;;;30.31;39.94;100357.91;10305091;28;20978;-58
2023/09/08 10:59:11;;;;;;;5.80;4.13;;;;;;;30.48;38.94;100341.41;10295298;28;20058;-57
2023/09/08 11:04:18;;;;;;;3.95;3.40;;;;;;;30.80;38.15;100348.97;10297964;28;20049;-58
2023/09/08 11:09:21;;;;;;;5.43;3.35;;;;;;;31.02;37.23;100351.72;10302938;28;20108;-56
2023/09/08 11:14:23;;;;;;;;;;;;;;;31.32;35.90;100342.16;10292751;28;20072;-58
2023/09/08 11:19:24;;;;;;;5.72;3.13;;;;;;;31.47;36.22;100335.16;10297650;28;19932;-59
2023/09/08 11:24:26;;;;;;;5.38;3.92;;;;;;;31.70;34.70;100337.56;10296296;28;20129;-60
2023/09/08 11:29:28;;;;;;;3.95;3.55;;;;;;;31.93;33.65;100327.28;10304663;28;20057;-59
2023/09/08 11:34:30;;;;;;;3.15;2.95;;;;;;;32.07;34.36;100323.00;10296261;28;21085;-58
2023/09/08 11:39:36;;;;;;;4.00;3.20;;;;;;;32.36;34.13;100313.56;10295319;28;20136;-59
2023/09/08 11:44:38;;;;;;;3.42;3.13;;;;;;;32.80;33.32;100306.88;10298897;28;20057;-59
2023/09/08 11:49:40;;;;;;;4.13;3.42;;;;;;;33.21;33.73;100307.00;10291303;28;20053;-60
2023/09/08 11:54:42;;;;;;;4.65;2.85;;;;;;;33.64;31.86;100311.19;10287914;28;20048;-60
2023/09/08 12:00:05;;;;;;;3.17;2.88;;;;;;;34.09;31.64;100297.63;10309339;28;20110;-60
2023/09/08 12:05:21;;;;;;;3.50;3.20;;;;;;;34.55;30.11;100321.53;10308890;28;20107;-61
2023/09/08 12:10:25;;;;;;;3.97;2.97;;;;;;;34.79;30.00;100305.16;10313246;28;20056;-62
2023/09/08 12:15:34;;;;;;;5.03;3.75;;;;;;;35.08;29.21;100304.44;10295087;28;20065;-61
2023/09/08 12:20:37;;;;;;;4.60;3.45;;;;;;;35.30;29.11;100295.75;10302777;28;20827;-60
2023/09/08 12:26:07;;;;;;;3.25;2.90;;;;;;;35.68;28.97;100292.38;10305745;28;20258;-62
2023/09/08 12:31:13;;;;;;;3.97;3.25;;;;;;;36.12;28.12;100288.63;10312448;28;20112;-60
2023/09/08 12:36:17;;;;;;;2.95;2.75;;;;;;;36.51;27.64;100289.59;10308510;28;20057;-60
2023/09/08 12:41:19;;;;;;;3.63;3.20;;;;;;;36.16;27.90;100291.66;10301750;28;20725;-59
2023/09/08 12:46:21;;;;;;;3.53;2.95;;;;;;;35.98;28.87;100282.97;10306944;28;20053;-61
2023/09/08 12:51:24;;;;;;;3.97;3.67;;;;;;;36.05;27.81;100277.09;10307463;28;20726;-59
2023/09/08 12:56:25;;;;;;;3.70;3.30;;;;;;;36.04;27.41;100275.44;10307465;28;20114;-59
2023/09/08 13:01:28;;;;;;;4.93;2.80;;;;;;;35.73;28.22;100273.78;10304661;28;20065;-61
2023/09/08 13:06:32;;;;;;;4.57;3.17;;;;;;;35.39;29.69;100271.06;10318226;28;20060;-61
2023/09/08 13:11:34;;;;;;;2.80;2.60;;;;;;;35.30;28.42;100265.31;10302069;28;20053;-63
2023/09/08 13:16:35;;;;;;;4.93;3.20;;;;;;;35.04;28.60;100264.63;10303243;28;20048;-57
2023/09/08 13:21:37;;;;;;;3.60;2.72;;;;;;;34.92;28.69;100255.88;10301638;28;20062;-54
2023/09/08 13:26:39;;;;;;;3.85;3.38;;;;;;;34.81;29.24;100255.94;10298530;28;20129;-58
2023/09/08 13:31:42;;;;;;;4.53;2.60;;;;;;;34.73;28.74;100256.50;10294798;28;20616;-54
2023/09/08 13:36:44;;;;;;;3.25;2.88;;;;;;;34.56;30.41;100242.22;10305522;28;20054;-57
2023/09/08 13:41:56;;;;;;;3.13;2.60;;;;;;;34.23;29.57;100230.75;10295631;28;20141;-54
2023/09/08 13:46:58;;;;;;;3.17;2.70;;;;;;;34.14;30.32;100234.09;10302964;28;20054;-64
2023/09/08 13:52:00;;;;;;;4.05;3.00;;;;;;;33.92;30.31;100228.09;10299754;28;20084;-53
2023/09/08 13:57:05;;;;;;;2.95;2.42;;;;;;;33.62;30.53;100230.59;10299363;28;20769;-53
2023/09/08 14:02:09;;;;;;;3.00;2.70;;;;;;;33.40;30.78;100228.13;10303129;28;20045;-53
2023/09/08 14:07:30;;;;;;;3.03;2.72;;;;;;;33.12;29.86;100222.03;10301786;28;20050;-54
2023/09/08 14:12:35;;;;;;;3.85;2.97;;;;;;;32.78;29.49;100211.53;10308192;28;20085;-53
2023/09/08 14:17:36;;;;;;;2.53;2.33;;;;;;;32.50;31.13;100210.03;10302523;28;20050;-53
2023/09/08 14:22:38;;;;;;;;;;;;;;;32.33;31.48;100209.44;10306071;28;20046;-53
2023/09/08 14:27:40;;;;;;;3.83;2.60;;;;;;;32.03;32.41;100200.75;10308160;28;19973;-53
2023/09/08 14:32:41;;;;;;;3.38;2.67;;;;;;;31.90;33.39;100209.47;10299464;28;20061;-60
2023/09/08 14:37:43;;;;;;;3.83;2.80;;;;;;;31.81;32.73;100202.84;10333882;28;20053;-54
2023/09/08 14:42:44;;;;;;;3.85;2.67;;;;;;;31.58;33.00;100207.66;10320841;28;20610;-53
2023/09/08 14:47:46;;;;;;;3.22;2.90;;;;;;;31.47;33.64;100205.91;10304824;28;20046;-54
2023/09/08 14:52:48;;;;;;;3.17;2.70;;;;;;;31.36;33.99;100202.22;10297252;28;20148;-53
2023/09/08 14:57:51;;;;;;;4.07;3.00;;;;;;;31.00;33.29;100178.03;10287411;28;20052;-53
2023/09/08 15:02:53;;;;;;;4.78;2.95;;;;;;;30.96;34.04;100193.34;10292607;28;20060;-54
2023/09/08 15:07:55;;;;;;;3.45;3.15;;;;;;;30.88;33.75;100193.81;10298904;28;20037;-52
2023/09/08 15:12:56;;;;;;;3.87;3.27;;;;;;;30.76;34.48;100194.00;10296948;28;20115;-53
2023/09/08 15:17:58;;;;;;;3.50;3.17;;;;;;;30.69;34.73;100193.34;10301411;28;20821;-56
2023/09/08 15:23:00;;;;;;;2.90;2.60;;;;;;;30.59;34.84;100193.25;10300962;28;20062;-54
2023/09/08 15:28:01;;;;;;;3.53;2.53;;;;;;;30.46;34.31;100183.47;10297122;28;20161;-54
2023/09/08 15:33:06;;;;;;;3.17;2.72;;;;;;;30.41;34.51;100188.94;10297739;28;20050;-56
2023/09/08 15:38:07;;;;;;;3.55;2.90;;;;;;;30.26;35.05;100165.66;10293461;28;20142;-54
2023/09/08 15:43:09;;;;;;;3.50;3.20;;;;;;;30.29;35.64;100183.53;10315799;28;20058;-53
2023/09/08 15:48:12;;;;;;;5.97;2.65;;;;;;;30.21;35.38;100195.00;10307273;28;20053;-53
2023/09/08 15:53:14;;;;;;;3.65;3.15;;;;;;;30.14;35.71;100197.91;10317628;28;20054;-54
2023/09/08 15:58:15;;;;;;;4.32;3.67;;;;;;;30.07;35.36;100192.63;10308239;28;20082;-54
2023/09/08 16:03:17;;;;;;;6.07;3.38;;;;;;;30.00;35.46;100191.16;10290591;28;20050;-55
2023/09/08 16:08:19;;;;;;;4.03;2.80;;;;;;;29.90;35.78;100180.84;10307049;28;20050;-54
2023/09/08 16:13:22;;;;;;;4.00;3.20;;;;;;;29.87;35.84;100187.66;10305826;28;20056;-54
2023/09/08 16:18:24;;;;;;;3.40;3.10;;;;;;;29.81;36.18;100185.94;10309427;28;20121;-54
2023/09/08 16:23:26;;;;;;;4.07;3.70;;;;;;;29.68;36.37;100183.53;10319112;28;20061;-53
2023/09/08 16:28:28;;;;;;;4.07;3.28;;;;;;;29.63;36.89;100181.53;10296524;28;20195;-54
2023/09/08 16:33:30;;;;;;;4.03;2.92;;;;;;;29.57;36.92;100177.06;10324673;28;20069;-53
2023/09/08 16:38:34;;;;;;;3.88;2.90;;;;;;;29.50;36.71;100187.38;10313533;28;20049;-53
2023/09/08 16:43:36;;;;;;;4.85;3.47;;;;;;;29.41;36.60;100179.59;10308873;28;20068;-54
2023/09/08 16:48:37;;;;;;;3.55;3.25;;;;;;;29.33;37.29;100181.91;10305250;28;20061;-53
2023/09/08 16:53:39;;;;;;;3.87;3.20;;;;;;;29.23;37.45;100174.34;10309752;28;20164;-52
2023/09/08 16:58:40;;;;;;;4.20;3.80;;;;;;;29.22;37.30;100189.16;10303079;28;20103;-53
2023/09/08 17:03:42;;;;;;;4.57;3.55;;;;;;;29.15;37.57;100185.69;10305474;28;20053;-53
2023/09/08 17:08:44;;;;;;;4.80;3.33;;;;;;;29.04;38.08;100173.75;10311019;28;20620;-51
2023/09/08 17:13:45;;;;;;;4.90;3.53;;;;;;;28.95;38.12;100170.56;10320800;28;20088;-52
2023/09/08 17:18:47;;;;;;;3.83;2.87;;;;;;;28.80;38.44;100154.69;10302623;28;20116;-52
2023/09/08 17:23:48;;;;;;;4.28;3.88;;;;;;;28.86;38.83;100178.38;10302455;28;20065;-50
2023/09/08 17:28:50;;;;;;;3.63;3.33;;;;;;;28.78;39.07;100173.31;10303471;28;20104;-51
2023/09/08 17:33:52;;;;;;;5.38;3.75;;;;;;;28.67;39.63;100169.53;10306031;28;20629;-52
2023/09/08 17:38:54;;;;;;;5.30;4.45;;;;;;;28.62;40.06;100179.56;10305341;28;20057;-52
2023/09/08 17:43:56;;;;;;;6.40;4.47;;;;;;;28.53;40.37;100188.13;10307549;28;20056;-52
2023/09/08 17:48:58;;;;;;;7.00;5.45;;;;;;;28.44;40.48;100186.03;10306434;28;20125;-52
2023/09/08 17:54:00;;;;;;;7.88;5.05;;;;;;;28.33;41.12;100182.25;10303186;28;20057;-51
2023/09/08 17:59:01;;;;;;;6.53;4.65;;;;;;;28.24;41.43;100191.91;10303101;28;20127;-51
2023/09/08 18:04:03;;;;;;;5.23;4.73;;;;;;;28.13;41.87;100197.16;10306196;28;20073;-51
2023/09/08 18:09:04;;;;;;;5.40;4.60;;;;;;;28.07;42.04;100202.78;10306641;28;20349;-52
2023/09/08 18:14:06;;;;;;;6.07;5.43;;;;;;;27.97;42.00;100197.91;10311118;28;20050;-52
2023/09/08 18:19:08;;;;;;;4.80;4.30;;;;;;;27.82;42.35;100184.72;10290456;28;20080;-50
2023/09/08 18:24:09;;;;;;;4.97;4.40;;;;;;;27.82;42.55;100195.66;10302609;28;20132;-51
2023/09/08 18:29:11;;;;;;;4.65;4.25;;;;;;;27.75;43.08;100195.78;10297136;28;20145;-51
2023/09/08 18:34:13;;;;;;;4.10;3.70;;;;;;;27.69;43.55;100196.72;10300861;28;20457;-52
2023/09/08 18:39:15;;;;;;;3.87;3.57;;;;;;;27.62;43.77;100201.47;10306924;28;21189;-50
2023/09/08 18:44:16;;;;;;;5.47;3.30;;;;;;;27.50;44.05;100191.41;10299736;28;20086;-51
2023/09/08 18:49:21;;;;;;;4.97;4.15;;;;;;;27.45;44.15;100202.19;10284992;28;20053;-51
2023/09/08 18:54:28;;;;;;;5.70;3.90;;;;;;;27.42;44.17;100207.31;10298066;28;20835;-51
2023/09/08 18:59:29;;;;;;;5.38;3.97;;;;;;;27.32;44.70;100208.72;10304971;28;20517;-51
2023/09/08 19:04:31;;;;;;;3.63;3.33;;;;;;;27.28;44.61;100209.41;10304482;28;20050;-51
2023/09/08 19:09:33;;;;;;;6.88;3.92;;;;;;;27.22;44.81;100208.44;10289678;28;20781;-51
2023/09/08 19:14:34;;;;;;;4.70;3.70;;;;;;;26.95;44.91;100181.53;10294692;28;20193;-51
2023/09/08 19:19:36;;;;;;;4.82;4.38;;;;;;;27.10;45.40;100211.16;10312048;28;20037;-51
2023/09/08 19:24:41;;;;;;;6.77;4.60;;;;;;;27.04;45.25;100216.69;10291179;28;20090;-52
2023/09/08 19:29:47;;;;;;;5.60;4.60;;;;;;;26.96;45.84;100215.13;10290430;28;20718;-52
2023/09/08 19:34:50;;;;;;;4.60;4.10;;;;;;;26.91;45.79;100212.28;10294405;28;20054;-52
2023/09/08 19:39:51;;;;;;;5.90;4.95;;;;;;;26.87;46.12;100208.34;10296039;28;20061;-52
2023/09/08 19:44:53;;;;;;;5.45;4.95;;;;;;;26.74;46.74;100206.66;10298501;28;20199;-52
2023/09/08 19:49:54;;;;;;;6.00;4.53;;;;;;;26.70;46.79;100217.19;10295989;28;20065;-52
2023/09/08 19:54:56;;;;;;;5.75;5.25;;;;;;;26.63;47.04;100208.22;10294194;28;20069;-51
2023/09/08 19:59:57;;;;;;;5.45;4.80;;;;;;;26.48;47.12;100205.06;10294121;28;20068;-52
2023/09/08 20:04:59;;;;;;;5.65;5.15;;;;;;;26.43;47.27;100222.94;10284467;28;20058;-51
2023/09/08 20:10:00;;;;;;;4.95;4.55;;;;;;;26.37;48.20;100223.88;10295851;28;20054;-52
2023/09/08 20:15:02;;;;;;;7.28;5.88;;;;;;;26.24;47.97;100210.38;10297042;28;20398;-52
2023/09/08 20:20:04;;;;;;;6.40;5.50;;;;;;;26.21;48.22;100214.44;10299422;28;20070;-51
2023/09/08 20:25:06;;;;;;;8.00;6.20;;;;;;;26.09;48.44;100206.16;10316031;28;20072;-51
2023/09/08 20:30:09;;;;;;;8.30;5.53;;;;;;;26.07;48.81;100218.34;10302523;28;20975;-51
2023/09/08 20:35:10;;;;;;;7.50;5.70;;;;;;;25.98;48.66;100225.97;10301066;28;20084;-50
2023/09/08 20:40:12;;;;;;;5.20;4.70;;;;;;;25.84;49.69;100224.44;10304665;28;20933;-51
2023/09/08 20:45:13;;;;;;;5.05;4.57;;;;;;;25.81;49.68;100216.72;10306885;28;20068;-52
2023/09/08 20:50:15;;;;;;;4.40;4.00;;;;;;;25.81;49.67;100227.63;10303680;28;20603;-51
2023/09/08 20:55:17;;;;;;;6.30;4.88;;;;;;;25.70;50.39;100219.13;10292611;28;20053;-52
2023/09/08 21:00:18;;;;;;;5.40;4.43;;;;;;;25.67;50.23;100225.03;10308857;28;20086;-51
2023/09/08 21:05:20;;;;;;;4.47;4.07;;;;;;;25.62;50.33;100222.13;10304704;28;20151;-51
2023/09/08 21:10:21;;;;;;;4.57;4.18;;;;;;;25.58;50.62;100220.88;10301578;28;21307;-53
2023/09/08 21:15:23;;;;;;;5.80;4.45;;;;;;;25.53;50.67;100226.19;10302231;28;20199;-51
2023/09/08 21:20:25;;;;;;;5.85;4.40;;;;;;;25.40;51.49;100219.81;10300392;28;20061;-51
2023/09/08 21:25:26;;;;;;;6.38;4.68;;;;;;;25.39;51.39;100226.28;10310181;28;20049;-51
2023/09/08 21:30:27;;;;;;;4.88;4.38;;;;;;;25.34;51.72;100223.41;10302221;28;20060;-49
2023/09/08 21:35:30;;;;;;;5.07;4.30;;;;;;;25.28;51.59;100215.25;10298853;28;20058;-52
2023/09/08 21:40:32;;;;;;;;;;;;;;;25.23;51.68;100218.63;10304964;28;20505;-52
2023/09/08 21:45:33;;;;;;;4.43;3.90;;;;;;;25.18;52.13;100215.75;10304373;28;20075;-52
2023/09/08 21:50:35;;;;;;;4.47;4.07;;;;;;;25.15;52.14;100216.19;10310157;28;20064;-53
2023/09/08 21:55:36;;;;;;;4.93;4.07;;;;;;;25.10;52.16;100208.69;10341711;28;20081;-53
2023/09/08 22:00:38;;;;;;;5.68;4.15;;;;;;;25.01;52.47;100210.84;10345923;28;20069;-51
2023/09/08 22:05:42;;;;;;;4.72;3.95;;;;;;;24.97;52.55;100214.22;10350053;28;20091;-51
2023/09/08 22:10:44;;;;;;;5.03;4.60;;;;;;;24.89;52.56;100207.13;10320948;28;20462;-52
2023/09/08 22:15:45;;;;;;;5.70;4.25;;;;;;;24.82;52.63;100207.19;10312094;28;20137;-52
2023/09/08 22:20:54;;;;;;;5.68;5.03;;;;;;;24.76;53.33;100207.25;10318953;28;20062;-52
2023/09/08 22:25:55;;;;;;;4.82;4.43;;;;;;;24.70;54.14;100215.22;10303813;28;20102;-53
2023/09/08 22:30:57;;;;;;;4.78;4.20;;;;;;;24.61;53.78;100194.75;10302039;28;20184;-52
2023/09/08 22:35:58;;;;;;;5.10;4.60;;;;;;;24.65;54.07;100211.47;10306251;28;20659;-52
2023/09/08 22:41:01;;;;;;;5.40;4.90;;;;;;;24.57;54.72;100207.06;10295770;28;20057;-52
2023/09/08 22:46:03;;;;;;;6.00;5.20;;;;;;;24.50;54.77;100209.84;10314855;28;20133;-54
2023/09/08 22:51:04;;;;;;;4.60;4.20;;;;;;;24.43;55.05;100206.31;10296001;28;20065;-53
2023/09/08 22:56:07;;;;;;;5.20;4.30;;;;;;;24.36;54.89;100208.22;10307160;28;20107;-52
2023/09/08 23:01:08;;;;;;;;;;;;;;;24.29;55.03;100210.97;10301020;28;20061;-54
2023/09/08 23:06:12;;;;;;;4.57;4.18;;;;;;;24.22;54.77;100207.44;10307278;28;19925;-52
2023/09/08 23:11:13;;;;;;;7.57;4.68;;;;;;;24.19;54.65;100207.88;10302857;28;20057;-53
2023/09/08 23:16:15;;;;;;;4.90;4.30;;;;;;;24.17;54.37;100209.97;10305577;28;20068;-53